Time;durP1;ratioP1;P1;durP2;ratioP2;P2;SDS_P1;SDS_P2;PMS_P1;PMS_P2;Temp;Humidity;BMP_temperature;BMP_pressure;BME280_temperature;BME280_humidity;BME280_pressure;Samples;Min_cycle;Max_cycle;Signal;HPM_P1;HPM_P2
2023/01/20 00:01:11;;;;;;;11.68;7.53;;;;;;;0.71;100.00;101083.09;5070249;28;20479;-65
2023/01/20 00:03:40;;;;;;;17.02;9.15;;;;;;;0.78;100.00;101091.81;5071624;28;20024;-63
2023/01/20 00:06:05;;;;;;;25.10;13.65;;;;;;;0.83;100.00;101094.44;5070777;28;20024;-64
2023/01/20 00:08:31;;;;;;;26.73;14.38;;;;;;;0.86;100.00;101094.50;5070003;28;20028;-65
2023/01/20 00:10:56;;;;;;;28.13;16.50;;;;;;;0.94;100.00;101095.47;5069513;28;20378;-65
2023/01/20 00:13:22;;;;;;;38.30;19.42;;;;;;;0.93;100.00;101093.69;5069576;28;20052;-64
2023/01/20 00:15:47;;;;;;;43.47;22.80;;;;;;;0.98;100.00;101089.44;5070303;28;20590;-64
2023/01/20 00:18:13;;;;;;;42.72;21.48;;;;;;;1.09;100.00;101096.44;5069853;28;20029;-64
2023/01/20 00:20:39;;;;;;;47.08;22.15;;;;;;;1.08;100.00;101099.91;5070418;28;20378;-64
2023/01/20 00:23:04;;;;;;;49.22;25.02;;;;;;;1.05;100.00;101095.53;5052186;28;20025;-65
2023/01/20 00:25:29;;;;;;;54.38;24.95;;;;;;;1.06;100.00;101102.50;5069011;28;20035;-65
2023/01/20 00:27:55;;;;;;;56.30;25.27;;;;;;;1.10;100.00;101105.97;5068060;28;20490;-65
2023/01/20 00:30:20;;;;;;;50.38;24.42;;;;;;;1.09;100.00;101107.69;5069661;28;20025;-64
2023/01/20 00:32:46;;;;;;;57.08;25.90;;;;;;;1.09;100.00;101104.25;5069062;28;20115;-65
2023/01/20 00:35:12;;;;;;;54.33;25.90;;;;;;;1.06;100.00;101102.50;5068236;28;20025;-65
2023/01/20 00:37:37;;;;;;;59.85;26.13;;;;;;;1.08;100.00;101103.34;5069332;28;20033;-64
2023/01/20 00:40:03;;;;;;;68.38;28.02;;;;;;;0.98;100.00;101101.53;5049914;28;20367;-63
2023/01/20 00:42:29;;;;;;;59.53;27.02;;;;;;;1.05;100.00;101099.88;5069502;28;20052;-65
2023/01/20 00:44:54;;;;;;;58.75;26.88;;;;;;;1.05;100.00;101100.72;5069640;28;20668;-64
2023/01/20 00:47:19;;;;;;;59.30;26.05;;;;;;;1.06;100.00;101106.81;5070122;28;20021;-63
2023/01/20 00:49:48;;;;;;;60.53;26.48;;;;;;;1.05;100.00;101110.25;5068394;28;20029;-64
2023/01/20 00:52:14;;;;;;;54.97;25.63;;;;;;;1.03;100.00;101109.38;5068766;28;20024;-65
2023/01/20 00:54:39;;;;;;;61.80;26.85;;;;;;;1.02;100.00;101105.88;5069123;28;20028;-65
2023/01/20 00:57:04;;;;;;;61.50;26.23;;;;;;;1.03;100.00;101109.38;5069393;28;20023;-65
2023/01/20 00:59:30;;;;;;;67.80;29.20;;;;;;;1.02;100.00;101107.63;5069585;28;20082;-64
2023/01/20 01:01:55;;;;;;;61.97;26.02;;;;;;;0.97;100.00;101111.03;5069608;28;20475;-66
2023/01/20 01:04:20;;;;;;;58.72;26.80;;;;;;;1.00;100.00;101108.47;5069772;28;20112;-65
2023/01/20 01:06:46;;;;;;;56.20;25.48;;;;;;;0.98;100.00;101107.59;5069933;28;20082;-66
2023/01/20 01:09:11;;;;;;;64.75;26.88;;;;;;;0.95;100.00;101114.47;5050257;28;20037;-65
2023/01/20 01:11:37;;;;;;;66.13;25.42;;;;;;;0.92;100.00;101114.44;5068451;28;20107;-64
2023/01/20 01:14:02;;;;;;;61.92;25.05;;;;;;;0.95;100.00;101127.44;5067762;28;20048;-65
2023/01/20 01:16:27;;;;;;;61.15;26.10;;;;;;;1.07;100.00;101129.28;5068728;28;20035;-66
2023/01/20 01:18:53;;;;;;;51.65;23.65;;;;;;;1.03;100.00;101128.41;5068592;28;20039;-65
2023/01/20 01:21:19;;;;;;;54.85;22.98;;;;;;;1.05;100.00;101125.84;5051203;28;20032;-66
2023/01/20 01:23:45;;;;;;;60.72;24.40;;;;;;;1.07;100.00;101118.91;5068947;28;20033;-65
2023/01/20 01:26:10;;;;;;;58.10;23.55;;;;;;;1.03;100.00;101128.41;5068084;28;20036;-66
2023/01/20 01:28:36;;;;;;;59.80;22.25;;;;;;;1.02;100.00;101136.19;5068109;28;20032;-65
2023/01/20 01:31:02;;;;;;;58.72;23.30;;;;;;;0.96;100.00;101135.25;5068078;28;20028;-65
2023/01/20 01:33:28;;;;;;;50.65;21.80;;;;;;;0.98;100.00;101145.66;5069385;28;20124;-66
2023/01/20 01:35:57;;;;;;;61.97;23.13;;;;;;;0.94;100.00;101146.47;5068345;28;20031;-65
2023/01/20 01:38:23;;;;;;;;;;;;;;;0.97;100.00;101146.50;5069828;28;20099;-65
2023/01/20 01:40:52;;;;;;;56.83;23.08;;;;;;;0.92;100.00;101154.25;5069374;28;19912;-65
2023/01/20 01:43:27;;;;;;;53.90;22.42;;;;;;;0.78;100.00;101151.47;5070401;28;20090;-65
2023/01/20 01:45:53;;;;;;;50.25;21.13;;;;;;;0.83;100.00;101151.53;5069134;28;20064;-67
2023/01/20 01:48:29;;;;;;;61.58;22.42;;;;;;;0.82;100.00;101144.59;5051308;28;20100;-66
2023/01/20 01:51:03;;;;;;;58.72;23.10;;;;;;;0.79;100.00;101153.22;5048005;28;20036;-63
2023/01/20 01:53:29;;;;;;;57.50;22.83;;;;;;;0.80;100.00;101148.91;5047404;28;20061;-65
2023/01/20 01:56:00;;;;;;;53.88;23.05;;;;;;;0.80;100.00;101148.91;5046531;28;20028;-66
2023/01/20 01:58:29;;;;;;;49.55;21.50;;;;;;;0.79;100.00;101147.16;5048211;28;20029;-66
2023/01/20 02:00:54;;;;;;;48.13;21.30;;;;;;;0.81;100.00;101153.25;5048282;28;20082;-65
2023/01/20 02:03:20;;;;;;;56.17;23.45;;;;;;;0.79;100.00;101149.75;5030744;28;20024;-65
2023/01/20 02:05:48;;;;;;;53.40;23.08;;;;;;;0.82;100.00;101145.50;5030160;28;20131;-65
2023/01/20 02:08:13;;;;;;;50.35;22.60;;;;;;;0.86;100.00;101151.56;5050867;28;20032;-65
2023/01/20 02:10:39;;;;;;;59.30;22.80;;;;;;;0.86;100.00;101147.25;5066471;28;20486;-66
2023/01/20 02:13:04;;;;;;;59.25;23.20;;;;;;;0.91;100.00;101155.09;5048285;28;20528;-66
2023/01/20 02:15:37;;;;;;;55.75;24.45;;;;;;;0.98;100.00;101150.84;5049762;28;20129;-64
2023/01/20 02:18:05;;;;;;;60.55;24.10;;;;;;;0.96;100.00;101150.81;5067319;28;20025;-65
2023/01/20 02:20:33;;;;;;;56.88;24.10;;;;;;;1.05;100.00;101141.41;5066328;28;20052;-65
2023/01/20 02:23:02;;;;;;;61.55;24.15;;;;;;;1.16;100.00;101144.97;5066373;28;20029;-66
2023/01/20 02:25:57;;;;;;;57.03;24.27;;;;;;;1.22;100.00;101139.84;5066303;28;20028;-64
2023/01/20 02:28:28;;;;;;;59.00;23.85;;;;;;;1.36;100.00;101145.16;5067407;28;20067;-65
2023/01/20 02:31:12;;;;;;;53.42;23.15;;;;;;;1.39;100.00;101144.34;5066945;28;20020;-66
2023/01/20 02:33:42;;;;;;;49.88;23.70;;;;;;;1.36;100.00;101146.91;5067263;28;20143;-64
2023/01/20 02:36:10;;;;;;;50.60;22.45;;;;;;;1.29;100.00;101147.69;5067033;28;20059;-65
2023/01/20 02:38:43;;;;;;;47.88;21.77;;;;;;;1.26;100.00;101146.81;5067100;28;20067;-65
2023/01/20 02:41:31;;;;;;;60.00;22.95;;;;;;;1.29;100.00;101145.09;5065253;28;20085;-64
2023/01/20 02:44:19;;;;;;;51.25;21.77;;;;;;;1.32;100.00;101145.13;5049033;28;20086;-67
2023/01/20 02:46:56;;;;;;;55.65;23.45;;;;;;;1.30;100.00;101139.94;5048849;28;20467;-65
2023/01/20 02:49:43;;;;;;;49.15;22.50;;;;;;;1.31;100.00;101144.25;5066825;28;20043;-65
2023/01/20 02:52:15;;;;;;;51.88;22.52;;;;;;;1.36;100.00;101141.72;5048856;28;20368;-65
2023/01/20 02:54:44;;;;;;;45.35;21.25;;;;;;;1.35;100.00;101137.34;5048686;28;20025;-64
2023/01/20 02:57:12;;;;;;;55.35;22.90;;;;;;;1.37;100.00;101131.34;5048728;28;20099;-67
2023/01/20 02:59:41;;;;;;;48.70;22.13;;;;;;;1.41;100.00;101133.97;5049177;28;20048;-65
2023/01/20 03:02:14;;;;;;;51.92;22.75;;;;;;;1.46;100.00;101133.13;5047732;28;20044;-64
2023/01/20 03:04:44;;;;;;;57.63;23.20;;;;;;;1.48;100.00;101141.78;5049298;28;20139;-66
2023/01/20 03:07:10;;;;;;;49.53;22.42;;;;;;;1.51;100.00;101139.22;5048909;28;20025;-66
2023/01/20 03:09:44;;;;;;;45.85;22.20;;;;;;;1.53;100.00;101138.38;5048186;28;20483;-66
2023/01/20 03:12:17;;;;;;;51.47;22.55;;;;;;;1.59;100.00;101143.63;5048485;28;20495;-65
2023/01/20 03:14:43;;;;;;;53.95;23.15;;;;;;;1.60;100.00;101142.78;5048343;28;20025;-65
2023/01/20 03:17:08;;;;;;;52.33;22.55;;;;;;;1.67;100.00;101139.38;5066633;28;20085;-65
2023/01/20 03:19:34;;;;;;;44.00;21.77;;;;;;;1.64;100.00;101141.94;5066799;28;20028;-65
2023/01/20 03:21:59;;;;;;;48.22;20.95;;;;;;;1.65;100.00;101143.66;5066369;28;20029;-66
2023/01/20 03:24:27;;;;;;;46.45;21.75;;;;;;;1.68;100.00;101138.50;5065097;28;20162;-66
2023/01/20 03:26:53;;;;;;;46.90;21.67;;;;;;;1.67;100.00;101139.38;5048314;28;20115;-65
2023/01/20 03:29:18;;;;;;;50.95;21.63;;;;;;;1.74;100.00;101137.66;5048518;28;20020;-65
2023/01/20 03:31:50;;;;;;;46.33;20.92;;;;;;;1.76;100.00;101139.44;5066534;28;20042;-66
2023/01/20 03:34:19;;;;;;;44.45;20.02;;;;;;;1.72;100.00;101134.22;5066083;28;20058;-66
2023/01/20 03:36:45;;;;;;;42.10;19.73;;;;;;;1.82;100.00;101137.72;5045154;28;20037;-66
2023/01/20 03:39:10;;;;;;;38.30;18.70;;;;;;;1.84;100.00;101134.28;5064548;28;20924;-65
2023/01/20 03:41:41;;;;;;;48.38;21.30;;;;;;;1.87;100.00;101141.25;5047238;28;20662;-65
2023/01/20 03:44:23;;;;;;;43.90;19.45;;;;;;;1.83;100.00;101134.28;5065914;28;20013;-65
2023/01/20 03:46:53;;;;;;;46.28;20.58;;;;;;;1.89;100.00;101131.72;5065766;28;20032;-65
2023/01/20 03:49:38;;;;;;;53.17;21.95;;;;;;;1.89;100.00;101139.50;5048616;28;20497;-67
2023/01/20 03:52:18;;;;;;;45.13;20.55;;;;;;;1.90;100.00;101133.47;5065761;28;20035;-66
2023/01/20 03:54:53;;;;;;;49.00;21.98;;;;;;;1.94;100.00;101130.03;5065376;28;20479;-65
2023/01/20 03:57:23;;;;;;;43.65;21.98;;;;;;;1.95;100.00;101131.75;5046025;28;20073;-64
2023/01/20 03:59:50;;;;;;;46.15;22.10;;;;;;;1.96;100.00;101135.25;5048862;28;20023;-65
2023/01/20 04:02:15;;;;;;;50.08;22.60;;;;;;;2.02;100.00;101135.28;5047556;28;20029;-65
2023/01/20 04:04:42;;;;;;;49.50;22.90;;;;;;;2.01;100.00;101142.22;5065321;28;20036;-64
2023/01/20 04:07:11;;;;;;;46.55;21.25;;;;;;;1.99;100.00;101143.91;5065963;28;20024;-65
2023/01/20 04:09:41;;;;;;;56.75;22.85;;;;;;;2.03;100.00;101142.22;5047551;28;20475;-66
2023/01/20 04:12:07;;;;;;;48.22;23.17;;;;;;;1.98;100.00;101146.50;5048082;28;20040;-66
2023/01/20 04:14:34;;;;;;;52.63;23.13;;;;;;;1.96;100.00;101146.50;5067953;28;20459;-65
2023/01/20 04:16:59;;;;;;;60.75;24.15;;;;;;;2.05;100.00;101142.22;5031238;28;20471;-64
2023/01/20 04:19:25;;;;;;;54.20;24.50;;;;;;;2.05;100.00;101143.13;5031805;28;20081;-67
2023/01/20 04:22:07;;;;;;;59.13;23.70;;;;;;;2.05;100.00;101144.84;5049207;28;20024;-67
2023/01/20 04:24:48;;;;;;;55.15;23.40;;;;;;;1.97;100.00;101147.38;5030622;28;20029;-67
2023/01/20 04:27:13;;;;;;;59.10;25.50;;;;;;;2.06;100.00;101149.16;5049922;28;20426;-65
2023/01/20 04:29:40;;;;;;;56.20;24.75;;;;;;;2.01;100.00;101155.22;5049228;28;20025;-65
2023/01/20 04:32:05;;;;;;;60.45;26.63;;;;;;;2.06;100.00;101150.03;5050027;28;20029;-65
2023/01/20 04:34:31;;;;;;;61.38;25.17;;;;;;;2.02;100.00;101149.13;5049374;28;20028;-64
2023/01/20 04:36:56;;;;;;;60.90;26.33;;;;;;;2.10;100.00;101140.50;5049177;28;20017;-64
2023/01/20 04:39:21;;;;;;;57.60;26.48;;;;;;;2.07;100.00;101150.88;5062778;28;20165;-65
2023/01/20 04:41:47;;;;;;;59.80;25.77;;;;;;;2.11;100.00;101153.53;5069320;28;20032;-65
2023/01/20 04:44:12;;;;;;;61.92;25.77;;;;;;;2.15;100.00;101154.44;5068111;28;20024;-65
2023/01/20 04:46:38;;;;;;;68.32;28.30;;;;;;;2.09;100.00;101146.59;5069057;28;20020;-65
2023/01/20 04:49:03;;;;;;;61.40;25.77;;;;;;;2.22;100.00;101161.41;5069113;28;20099;-65
2023/01/20 04:51:28;;;;;;;60.90;26.08;;;;;;;2.11;100.00;101157.88;5068509;28;20557;-65
2023/01/20 04:53:58;;;;;;;62.78;26.02;;;;;;;2.19;100.00;101166.56;5050516;28;20548;-65
2023/01/20 04:56:23;;;;;;;;;;;;;;;2.12;100.00;101152.69;5068515;28;20475;-65
2023/01/20 04:58:48;;;;;;;59.80;25.73;;;;;;;2.13;100.00;101153.53;5068602;28;20001;-66
2023/01/20 05:01:14;;;;;;;55.72;24.63;;;;;;;2.09;100.00;101168.25;5068625;28;20412;-66
2023/01/20 05:03:39;;;;;;;57.88;26.75;;;;;;;2.18;100.00;101170.03;5069137;28;20367;-65
2023/01/20 05:06:05;;;;;;;61.55;26.17;;;;;;;2.15;100.00;101159.63;5067862;28;20020;-65
2023/01/20 05:08:31;;;;;;;61.20;26.92;;;;;;;2.17;100.00;101173.53;5064810;28;20025;-65
2023/01/20 05:10:56;;;;;;;63.78;26.70;;;;;;;2.20;100.00;101170.91;5067052;28;20402;-66
2023/01/20 05:13:22;;;;;;;64.80;28.77;;;;;;;2.16;100.00;101171.75;5049935;28;20041;-67
2023/01/20 05:15:47;;;;;;;61.20;25.27;;;;;;;2.23;100.00;101173.53;5068379;28;20086;-65
2023/01/20 05:18:13;;;;;;;63.97;27.27;;;;;;;2.27;100.00;101174.44;5067591;28;20069;-65
2023/01/20 05:20:38;;;;;;;61.47;26.58;;;;;;;2.31;100.00;101181.38;5067999;28;20050;-64
2023/01/20 05:23:04;;;;;;;67.53;26.25;;;;;;;2.29;100.00;101177.03;5067540;28;20096;-65
2023/01/20 05:25:29;;;;;;;54.72;24.65;;;;;;;2.25;100.00;101197.81;5066269;28;20459;-66
2023/01/20 05:27:54;;;;;;;64.22;25.38;;;;;;;2.30;100.00;101186.56;5064603;28;20052;-67
2023/01/20 05:30:20;;;;;;;64.13;26.30;;;;;;;2.24;100.00;101190.91;5068041;28;20032;-65
2023/01/20 05:32:48;;;;;;;60.08;24.30;;;;;;;2.29;100.00;101190.94;5067226;28;20023;-65
2023/01/20 05:35:13;;;;;;;57.97;24.05;;;;;;;2.31;100.00;101191.78;5067574;28;20036;-66
2023/01/20 05:37:38;;;;;;;49.70;22.88;;;;;;;2.26;100.00;101194.34;5064864;28;20017;-66
2023/01/20 05:40:04;;;;;;;58.75;25.02;;;;;;;2.23;100.00;101193.47;5066195;28;20013;-65
2023/01/20 05:42:31;;;;;;;61.78;24.83;;;;;;;2.12;100.00;101190.81;5048877;28;20348;-66
2023/01/20 05:44:57;;;;;;;57.33;24.95;;;;;;;2.14;100.00;101196.91;5067033;28;20017;-65
2023/01/20 05:47:22;;;;;;;61.05;25.13;;;;;;;2.13;100.00;101188.22;5067127;28;20028;-65
2023/01/20 05:49:47;;;;;;;51.67;23.05;;;;;;;2.23;100.00;101199.53;5067547;28;20028;-64
2023/01/20 05:52:13;;;;;;;58.95;24.10;;;;;;;2.20;100.00;101194.31;5064890;28;20016;-65
2023/01/20 05:54:38;;;;;;;56.22;24.38;;;;;;;2.12;100.00;101191.69;5065425;28;20017;-66
2023/01/20 05:57:04;;;;;;;59.40;25.02;;;;;;;2.13;100.00;101192.53;5066835;28;20474;-66
2023/01/20 05:59:30;;;;;;;57.33;24.42;;;;;;;2.07;100.00;101192.47;5067717;28;20016;-66
2023/01/20 06:01:55;;;;;;;55.45;24.40;;;;;;;2.09;100.00;101193.38;5049218;28;20689;-66
2023/01/20 06:04:20;;;;;;;60.90;25.23;;;;;;;2.12;100.00;101196.00;5067804;28;20155;-67
2023/01/20 06:06:46;;;;;;;58.75;24.38;;;;;;;2.06;100.00;101195.94;5067821;28;20037;-66
2023/01/20 06:09:11;;;;;;;55.78;24.60;;;;;;;2.07;100.00;101197.69;5066603;28;20020;-66
2023/01/20 06:11:36;;;;;;;63.35;25.52;;;;;;;2.10;100.00;101192.50;5066222;28;20725;-66
2023/01/20 06:14:02;;;;;;;60.03;24.90;;;;;;;2.04;100.00;101197.69;5066788;28;20679;-66
2023/01/20 06:16:28;;;;;;;66.35;27.15;;;;;;;1.99;100.00;101201.09;5066251;28;20433;-66
2023/01/20 06:18:54;;;;;;;54.38;24.40;;;;;;;1.99;100.00;101195.06;5066425;28;20024;-67
2023/01/20 06:21:19;;;;;;;57.28;24.25;;;;;;;1.95;100.00;101194.16;5067397;28;20425;-66
2023/01/20 06:23:44;;;;;;;54.25;23.13;;;;;;;2.00;100.00;101196.78;5066769;28;20376;-66
2023/01/20 06:26:11;;;;;;;59.17;24.13;;;;;;;1.96;100.00;101195.03;5066103;28;20059;-68
2023/01/20 06:28:37;;;;;;;53.08;22.52;;;;;;;2.04;100.00;101193.34;5067184;28;20035;-65
2023/01/20 06:31:10;;;;;;;50.80;23.13;;;;;;;2.01;100.00;101191.59;5066580;28;20028;-65
2023/01/20 06:33:36;;;;;;;50.78;22.90;;;;;;;1.94;100.00;101202.81;5066482;28;20032;-65
2023/01/20 06:36:02;;;;;;;41.10;20.73;;;;;;;1.91;100.00;101192.38;5049165;28;20028;-67
2023/01/20 06:38:29;;;;;;;42.00;21.52;;;;;;;1.95;100.00;101191.53;5058773;28;20020;-64
2023/01/20 06:40:59;;;;;;;45.90;22.50;;;;;;;1.87;100.00;101195.81;5064911;28;20048;-65
2023/01/20 06:43:24;;;;;;;46.20;22.45;;;;;;;1.89;100.00;101197.56;5067549;28;20115;-66
2023/01/20 06:45:50;;;;;;;43.80;20.80;;;;;;;1.77;100.00;101202.66;5068147;28;20396;-66
2023/01/20 06:48:15;;;;;;;41.70;20.27;;;;;;;1.82;100.00;101203.59;5067766;28;20021;-65
2023/01/20 06:50:41;;;;;;;43.40;20.95;;;;;;;1.79;100.00;101210.47;5067665;28;20028;-67
2023/01/20 06:53:07;;;;;;;44.08;21.23;;;;;;;1.76;100.00;101209.59;5066188;28;20111;-67
2023/01/20 06:55:32;;;;;;;41.70;20.17;;;;;;;1.70;100.00;101206.94;5067649;28;20147;-66
2023/01/20 06:57:57;;;;;;;43.17;21.20;;;;;;;1.55;100.00;101210.28;5068365;28;20115;-66
2023/01/20 07:00:23;;;;;;;42.58;19.92;;;;;;;1.72;100.00;101214.75;5067983;28;20170;-66
2023/01/20 07:02:48;;;;;;;38.42;20.45;;;;;;;1.69;100.00;101220.81;5068486;28;20032;-66
2023/01/20 07:05:14;;;;;;;40.58;19.95;;;;;;;1.74;100.00;101223.41;5067585;28;20471;-66
2023/01/20 07:07:42;;;;;;;40.10;19.75;;;;;;;1.70;100.00;101222.53;5067812;28;20016;-66
2023/01/20 07:10:08;;;;;;;39.95;19.60;;;;;;;1.68;100.00;101232.03;5066683;28;20036;-66
2023/01/20 07:12:33;;;;;;;35.17;18.98;;;;;;;1.68;100.00;101225.97;5049552;28;20736;-65
2023/01/20 07:14:58;;;;;;;40.80;19.38;;;;;;;1.73;100.00;101224.28;5048743;28;20028;-65
2023/01/20 07:17:24;;;;;;;33.30;18.10;;;;;;;1.75;100.00;101228.63;5067008;28;20021;-66
2023/01/20 07:19:49;;;;;;;35.13;19.42;;;;;;;1.75;100.00;101235.56;5066924;28;20052;-65
2023/01/20 07:22:14;;;;;;;38.03;18.70;;;;;;;1.78;100.00;101243.41;5065917;28;20509;-65
2023/01/20 07:24:40;;;;;;;40.30;18.30;;;;;;;1.91;100.00;101246.09;5065890;28;20479;-65
2023/01/20 07:27:05;;;;;;;38.50;18.67;;;;;;;1.88;100.00;101250.41;5066972;28;20024;-65
2023/01/20 07:29:30;;;;;;;30.48;17.40;;;;;;;1.82;100.00;101239.97;5065951;28;20498;-67
2023/01/20 07:31:56;;;;;;;32.42;17.73;;;;;;;1.90;100.00;101240.03;5066283;28;20043;-66
2023/01/20 07:34:21;;;;;;;32.00;17.35;;;;;;;1.92;100.00;101246.09;5066757;28;20024;-66
2023/01/20 07:36:46;;;;;;;27.90;15.63;;;;;;;1.92;100.00;101253.03;5065853;28;20059;-65
2023/01/20 07:39:13;;;;;;;32.53;17.17;;;;;;;1.97;100.00;101253.94;5064991;28;20115;-66
2023/01/20 07:41:38;;;;;;;32.80;16.52;;;;;;;1.95;100.00;101248.72;5063994;28;20042;-65
2023/01/20 07:44:04;;;;;;;28.95;16.73;;;;;;;1.99;100.00;101255.69;5065530;28;20032;-66
2023/01/20 07:46:29;;;;;;;29.23;15.93;;;;;;;2.04;100.00;101265.28;5065727;28;20024;-65
2023/01/20 07:48:55;;;;;;;33.70;16.23;;;;;;;1.97;100.00;101253.94;5055480;28;20567;-66
2023/01/20 07:51:20;;;;;;;27.90;16.00;;;;;;;1.98;100.00;101261.75;5044049;28;20107;-67
2023/01/20 07:53:47;;;;;;;31.88;16.48;;;;;;;1.97;100.00;101256.53;5057741;28;20037;-66
2023/01/20 07:56:14;;;;;;;24.38;15.55;;;;;;;2.04;100.00;101255.72;5061683;28;20139;-66
2023/01/20 07:58:40;;;;;;;27.70;14.75;;;;;;;2.12;100.00;101259.28;5059875;28;20059;-66
2023/01/20 08:01:29;;;;;;;27.73;15.48;;;;;;;2.13;100.00;101267.94;5059320;28;20024;-66
2023/01/20 08:03:55;;;;;;;28.00;16.15;;;;;;;2.13;100.00;101273.13;5060168;28;20037;-67
2023/01/20 08:06:23;;;;;;;31.42;18.27;;;;;;;2.11;100.00;101274.88;5060824;28;20024;-67
2023/01/20 08:08:49;;;;;;;30.65;16.75;;;;;;;2.12;100.00;101272.28;5056794;28;20068;-65
2023/01/20 08:11:15;;;;;;;33.28;17.48;;;;;;;2.11;100.00;101272.25;5059248;28;20041;-63
2023/01/20 08:13:41;;;;;;;27.20;17.42;;;;;;;2.10;100.00;101267.91;5058003;28;20064;-65
2023/01/20 08:16:09;;;;;;;35.15;19.08;;;;;;;2.09;100.00;101274.84;5054415;28;20124;-67
2023/01/20 08:18:35;;;;;;;34.85;18.35;;;;;;;2.02;100.00;101271.31;5067475;28;20032;-63
2023/01/20 08:21:05;;;;;;;34.47;18.23;;;;;;;2.02;100.00;101273.91;5069731;28;20426;-65
2023/01/20 08:23:31;;;;;;;35.72;19.08;;;;;;;2.00;100.00;101275.66;5069131;28;20020;-66
2023/01/20 08:26:01;;;;;;;30.88;18.40;;;;;;;1.94;100.00;101295.50;5070495;28;20112;-66
2023/01/20 08:28:27;;;;;;;32.17;18.40;;;;;;;1.97;100.00;101304.22;5061731;28;20456;-67
2023/01/20 08:30:52;;;;;;;31.73;18.92;;;;;;;1.92;100.00;101316.28;5058666;28;20084;-63
2023/01/20 08:33:17;;;;;;;30.52;18.33;;;;;;;2.01;100.00;101329.38;5068197;28;20509;-69
2023/01/20 08:35:43;;;;;;;31.88;18.27;;;;;;;1.95;100.00;101316.31;5070399;28;20463;-67
2023/01/20 08:38:08;;;;;;;33.53;18.50;;;;;;;1.93;100.00;101319.75;5069377;28;20036;-65
2023/01/20 08:40:34;;;;;;;34.65;18.85;;;;;;;1.82;100.00;101325.72;5069992;28;20047;-66
2023/01/20 08:42:59;;;;;;;31.90;17.85;;;;;;;1.67;100.00;101330.75;5062904;28;20025;-66
2023/01/20 08:45:24;;;;;;;29.65;18.73;;;;;;;1.67;100.00;101331.63;5061868;28;20111;-68
2023/01/20 08:47:50;;;;;;;28.42;18.02;;;;;;;1.69;100.00;101324.72;5059889;28;20024;-63
2023/01/20 08:50:15;;;;;;;31.73;19.20;;;;;;;1.69;100.00;101311.75;5060861;28;20099;-63
2023/01/20 08:52:41;;;;;;;35.85;20.25;;;;;;;1.62;100.00;101313.38;5068959;28;20032;-67
2023/01/20 08:55:07;;;;;;;33.97;19.27;;;;;;;1.60;100.00;101314.22;5069020;28;20028;-66
2023/01/20 08:57:33;;;;;;;31.08;19.27;;;;;;;1.56;100.00;101310.72;5069511;28;20119;-65
2023/01/20 08:59:58;;;;;;;33.58;19.98;;;;;;;1.61;100.00;101319.44;5063956;28;20029;-66
2023/01/20 09:02:23;;;;;;;33.75;19.50;;;;;;;1.53;100.00;101328.84;5057665;28;20108;-68
2023/01/20 09:04:49;;;;;;;27.25;18.42;;;;;;;1.58;100.00;101326.31;5059629;28;20025;-68
2023/01/20 09:07:17;;;;;;;29.33;18.77;;;;;;;1.64;100.00;101318.59;5057922;28;20021;-69
2023/01/20 09:09:42;;;;;;;27.58;17.13;;;;;;;1.67;100.00;101318.63;5058753;28;20090;-69
2023/01/20 09:12:08;;;;;;;29.33;18.52;;;;;;;1.73;100.00;101326.50;5042299;28;20029;-67
2023/01/20 09:14:33;;;;;;;32.08;19.95;;;;;;;1.71;100.00;101330.78;5057477;28;20491;-67
2023/01/20 09:17:00;;;;;;;29.73;17.75;;;;;;;1.87;100.00;101330.97;5058586;28;20670;-68
2023/01/20 09:19:25;;;;;;;30.60;18.15;;;;;;;1.85;100.00;101333.56;5059808;28;20023;-69
2023/01/20 09:21:51;;;;;;;30.52;19.63;;;;;;;1.84;100.00;101331.78;5057155;28;20108;-67
2023/01/20 09:24:16;;;;;;;29.75;19.52;;;;;;;1.95;100.00;101337.09;5056821;28;20024;-67
2023/01/20 09:26:42;;;;;;;32.85;20.13;;;;;;;1.82;100.00;101343.03;5055131;28;20016;-68
2023/01/20 09:29:11;;;;;;;31.20;19.00;;;;;;;1.91;100.00;101335.34;5060627;28;20766;-66
2023/01/20 09:31:45;;;;;;;32.55;18.40;;;;;;;1.76;100.00;101336.94;5061326;28;20104;-67
2023/01/20 09:34:17;;;;;;;33.28;19.65;;;;;;;1.66;100.00;101342.88;5064036;28;20032;-65
2023/01/20 09:36:43;;;;;;;33.35;19.63;;;;;;;1.59;100.00;101351.44;5060309;28;20031;-68
2023/01/20 09:45:06;;;;;;;33.03;19.23;;;;;;;1.62;100.00;101351.47;5025189;28;20068;-68
2023/01/20 09:47:39;;;;;;;35.50;20.33;;;;;;;1.73;100.00;101344.69;5068147;28;20047;-66
2023/01/20 09:54:00;;;;;;;34.88;19.50;;;;;;;1.79;100.00;101354.28;5052070;28;20038;-67
2023/01/20 09:56:26;;;;;;;36.63;20.00;;;;;;;1.97;100.00;101351.00;5009339;28;20033;-66
2023/01/20 09:59:01;;;;;;;36.08;20.90;;;;;;;2.10;100.00;101348.50;5029594;28;20069;-68
2023/01/20 10:01:43;;;;;;;40.03;20.55;;;;;;;2.29;100.00;101346.09;5066988;28;20063;-69
2023/01/20 10:04:29;;;;;;;34.20;20.13;;;;;;;2.39;100.00;101350.50;5028816;28;20025;-68
2023/01/20 10:07:11;;;;;;;36.72;21.80;;;;;;;2.78;100.00;101353.41;5060844;28;20105;-68
2023/01/20 10:09:45;;;;;;;27.02;18.65;;;;;;;3.14;100.00;101358.81;5034890;28;20017;-69
2023/01/20 10:12:14;;;;;;;33.10;18.17;;;;;;;3.21;100.00;101363.19;5046034;28;20128;-71
2023/01/20 10:14:48;;;;;;;28.33;17.67;;;;;;;3.20;100.00;101365.78;5046992;28;20111;-65
2023/01/20 10:17:24;;;;;;;31.20;17.60;;;;;;;3.10;100.00;101365.72;5027030;28;20412;-66
2023/01/20 10:19:53;;;;;;;28.42;18.83;;;;;;;3.12;100.00;101358.81;5039621;28;20040;-65
2023/01/20 10:22:20;;;;;;;;;;;;;;;3.12;100.00;101357.94;5060702;28;20020;-65
2023/01/20 10:24:51;;;;;;;30.25;17.05;;;;;;;3.02;100.00;101363.13;5045133;28;19916;-65
2023/01/20 10:27:17;;;;;;;30.40;18.38;;;;;;;3.08;100.00;101353.56;5049618;28;20051;-68
2023/01/20 10:29:50;;;;;;;26.52;17.55;;;;;;;3.00;100.00;101364.81;5063960;28;20123;-66
2023/01/20 10:32:32;;;;;;;29.17;17.80;;;;;;;2.88;100.00;101380.34;5065180;28;20037;-69
2023/01/20 10:35:14;;;;;;;29.45;18.60;;;;;;;2.92;100.00;101371.69;5037281;28;20029;-69
2023/01/20 10:37:40;;;;;;;33.38;18.30;;;;;;;2.94;100.00;101375.19;5066015;28;20554;-68
2023/01/20 10:40:16;;;;;;;30.23;19.15;;;;;;;3.02;100.00;101368.31;5065080;28;20115;-66
2023/01/20 10:42:47;;;;;;;29.60;19.05;;;;;;;3.13;100.00;101362.31;5043705;28;20020;-72
2023/01/20 10:46:00;;;;;;;35.25;20.08;;;;;;;3.16;100.00;101359.69;5067801;28;20034;-67
2023/01/20 10:48:28;;;;;;;29.70;17.80;;;;;;;3.23;100.00;101361.47;5041116;28;20049;-66
2023/01/20 10:51:05;;;;;;;29.95;18.05;;;;;;;3.29;100.00;101366.69;5059628;28;20028;-68
2023/01/20 10:53:55;;;;;;;29.90;17.73;;;;;;;3.17;100.00;101361.44;5047410;28;20030;-67
2023/01/20 10:56:36;;;;;;;33.70;18.58;;;;;;;3.03;100.00;101357.03;5048450;28;20021;-67
2023/01/20 10:59:12;;;;;;;34.50;18.88;;;;;;;3.23;100.00;101361.47;5048204;28;20043;-66
2023/01/20 11:01:38;;;;;;;31.52;19.85;;;;;;;2.93;100.00;101368.25;5047559;28;20048;-68
2023/01/20 11:04:03;;;;;;;29.98;19.15;;;;;;;2.88;100.00;101363.00;5050562;28;20052;-67
2023/01/20 11:06:29;;;;;;;31.23;19.88;;;;;;;2.75;100.00;101356.88;5046461;28;20083;-67
2023/01/20 11:08:55;;;;;;;32.97;20.30;;;;;;;2.58;100.00;101355.84;5045234;28;20027;-68
2023/01/20 11:11:23;;;;;;;33.20;21.02;;;;;;;2.41;100.00;101356.59;5028369;28;20087;-67
2023/01/20 11:13:50;;;;;;;33.83;20.45;;;;;;;2.47;100.00;101366.19;5046595;28;20045;-66
2023/01/20 11:16:24;;;;;;;38.85;20.10;;;;;;;2.47;100.00;101372.22;5046805;28;20021;-67
2023/01/20 11:18:58;;;;;;;37.90;21.13;;;;;;;2.20;100.00;101371.13;5028836;28;20498;-65
2023/01/20 11:21:25;;;;;;;31.08;20.02;;;;;;;2.22;100.00;101369.44;5046410;28;20028;-67
2023/01/20 11:23:54;;;;;;;33.35;19.77;;;;;;;2.37;100.00;101365.22;5057762;28;20074;-68